Atmautluak, AK

1:29 PM AKST on February 12, 2016 (GMT -0900)
Nunapitchuk AP, Nunapitchuk, | | Change Station
CLOSE
Current Station
Airport
Location: Nunapitchuk AP, Nunapitchuk,,
Elevation: 13 ft
Nearby Weather Stations

Elev 13 ft 60.91 °N, 162.44 °W | Updated 33 minutes ago

Light Snow
Light Snow Mist
16 °F
Feels Like 0 °F
N
17
Wind Variable Wind from NE

Today
High -- | Low -- °F
--% Chance of Precip.
Yesterday
High -- | Low -- °F
Precip. -- in
Pressure 29.36 in
Visibility 5.0 miles
Clouds Scattered Clouds 1700 ft
Scattered Clouds 3900 ft
Overcast 6000 ft
Windchill 0 °F
Dew Point 13 °F
Humidity 88%
Rainfall 0.00 in
Snow Depth Not available.
9:40 AM 6:30 PM
Waxing Crescent, 24% visible
METAR PPIT 122156Z AUTO 04015KT 5SM -SN BR SCT017 SCT039 OVC060 M09/M11 A2936 RMK AO2 SLP941 P0000 T10891106 FZRANO
Pressure 29.36 in
Visibility 5.0 miles
Clouds Scattered Clouds 1700 ft
Scattered Clouds 3900 ft
Overcast 6000 ft
Windchill 0 °F
Dew Point 13 °F
Humidity 88%
Rainfall 0.00 in
Snow Depth Not available.
9:40 AM 6:30 PM
Waxing Crescent, 24% visible
METAR PPIT 122156Z AUTO 04015KT 5SM -SN BR SCT017 SCT039 OVC060 M09/M11 A2936 RMK AO2 SLP941 P0000 T10891106 FZRANO

10-Day Weather Forecast

Almanac

Astronomy

Feb. 12, 2016 Rise Set
Actual Time
Civil Twilight
Nautical Twilight
Astronomical Twilight
Moon
Length of Visible Light
Length of Day
Tomorrow will be .
, % of the Moon is Illuminated

Today's Extremes

State Highs State Lows

Community

WunderPhotos

Upload Photos

1,892,421 photos uploaded!

WunderBlog® & News

Nearby

Air Quality

  Air Quality AQ Index Pollutant
Not available.

Snow Depth

Station Depth Elevation

Earthquake Activity

City Distance Mag. Time & Date
Minimum magnitude displayed is 2.5.

Coastal Water Temperatures

Place Temperature

Stations

Nearby Weather Stations

Station Location Temp. Windchill Dew Point Humidity Wind Precip. Elev Updated Type
                   

Watches & Warnings

There are currently no watches in effect.